Airfield :
LOGIN :

Register | Disclaimer

   EN    FR    IT 

 










Legend :    VFR   Marginal VFR   IFR   Intensive IFR   Very Intensive IFR
Visi :
Ceiling :
>= 8 km
>= 3000ft
5 to 8 km
1000 to 3000 ft
1500m to 5 km
500 to 1000 ft
800 to 1500m
200 to 500 ft
< 800m
< 200 ft
Symbols :   Thunderstorms  Fog  Heavy snow  Heavy precipitations  Wind > 20 kt
SIGMETs :     Misc.  Thunderstorms  Icing  Turbulence  Mountain Waves  Volcanic Ashes







- Airport Elevation : 876 ft
- IATA code : MBX


LJMB - Maribor

CURRENT METAR :
  • 181330Z 16009KT 120V200 CAVOK 26/12 Q1020

EXPIRED METARs :
  • 181300Z 17007KT 120V200 CAVOK 26/11 Q1020
  • 181230Z 18009KT 130V220 CAVOK 27/12 Q1021
  • 181200Z 18006KT 120V220 CAVOK 26/12 Q1021
  • 181130Z 17009KT CAVOK 26/10 Q1021
  • 181100Z 16011KT CAVOK 26/11 Q1021

TAF TAF LJMB
Valid from the 18 at 12:00 until the 19 at 12:00 UTC


181100Z 1812/1912 10005KT CAVOK
BECMG 1817/1819 VRB02KT
PROB40
TEMPO 1900/1907 0300 FG VV001
No reported NOTAMs for that airfield.



MET'MAP, your aeronautical weather chart ! - Copyright ORBIFLY December 2007 - Disclaimer

ORBIFLY MET'MAP TEAM :

Programming & Development : Alexandra Zaïnal
Concept & Development : Baudouin d'Aumeries
Co-Development & Prog : Marc-Olivier Méhu
Technical & hardware support : Manuel Goepfert

Contact : metmap@orbifly.com




SOURCES & CREDITS :

   NOAA